Weather observations for the past three days for
San Luis Obispo, San Luis Obispo County-Mc Chesney Field
Metric (Imperial)
Date Time (pdt) Wind (kph) Vis. (km) Weather Sky Cond. Temperature (ºC) Relative Humidity Wind Chill (°C) Heat Index (°C) Pressure Precipitation (cm)
Air Dwpt 6 hour altimeter (cm) sea level (mb) 1 hr 3 hr 6 hr
Max. Min.
02 11:56 NW 24 16.09 Fair CLR 23.9 9.4 40% 25 76.3 1017.2
02 10:56 NW 19 16.09 Fair CLR 22.8 9.4 23.3 11.7 43% 76.33 1017.3
02 09:56 NW 19 16.09 Fair CLR 20.6 9.4 49% 76.33 1017.4
02 08:56 Calm 16.09 Fair CLR 16.1 11.7 75% 76.33 1017.4
02 07:56 Calm 11.27 Mostly Cloudy BKN002 12.2 12.2 100% 76.33 1017.6
02 06:56 SE 7 0.80 Sky Obscured VV002 11.7 11.7 100% 76.28 1017.0
02 05:56 W 6 0.40 Fog VV002 12.2 12.2 100% 76.28 1016.9
02 04:56 Calm 6.44 Fog/Mist OVC003 12.2 11.7 13.3 11.7 97% 76.3 1017.0
02 03:56 Calm 11.27 Overcast OVC004 12.8 11.7 93% 76.28 1016.7
02 02:56 SE 6 16.09 Mostly Cloudy BKN004 12.2 10.6 90% 76.28 1016.9
02 01:56 Calm 16.09 Fair CLR 12.2 10 87% 76.3 1017.1
02 00:56 SE 7 16.09 A Few Clouds FEW008 12.8 10.6 87% 76.3 1017.0
01 23:56 SE 6 16.09 A Few Clouds FEW009 13.3 11.7 90% 76.3 1017.0
01 22:56 NW 6 16.09 Fair CLR 15 12.8 20.6 15 87% 76.3 1016.9
01 21:56 NW 6 16.09 A Few Clouds FEW017 15.6 12.2 80% 76.33 1017.3
01 20:56 NW 13 16.09 A Few Clouds FEW014 15.6 12.8 84% 76.28 1016.6
01 19:56 NW 17 16.09 Partly Cloudy SCT017 16.7 12.8 78% 76.23 1016.0
01 18:56 NW 19 16.09 A Few Clouds FEW028 17.8 11.7 68% 76.2 1015.8
01 17:56 NW 28 16.09 Fair CLR 19.4 10 55% 76.2 1015.7
01 16:56 NW 30 16.09 Fair CLR 20 10 22.8 20 53% 76.2 1015.6
01 15:56 NW 26 16.09 Fair CLR 20.6 9.4 49% 76.2 1015.6
01 14:56 NW 30 16.09 Fair CLR 21.1 9.4 47% 76.2 1015.9
01 13:56 NW 33 G 43 16.09 Fair and Breezy CLR 22.2 9.4 44% 76.23 1015.9
01 12:56 NW 15 G 28 16.09 Fair CLR 21.7 8.9 44% 76.25 1016.3
01 11:56 N 7 16.09 Fair CLR 20.6 8.3 45% 76.28 1016.7
01 10:56 NW 19 G 33 16.09 A Few Clouds FEW030 20.6 8.9 21.1 13.3 47% 76.28 1016.9
01 09:56 NW 17 G 26 16.09 A Few Clouds FEW030 19.4 9.4 53% 76.28 1016.6
01 08:56 W 6 16.09 Fair CLR 16.7 11.1 70% 76.25 1016.5
01 07:56 Calm 16.09 Fair CLR 14.4 11.1 81% 76.25 1016.5
01 06:56 Calm 16.09 A Few Clouds FEW033 13.3 11.1 87% 76.23 1016.0
01 05:56 Calm 16.09 Smoke OVC032 13.9 11.1 83% 76.2 1015.7
01 04:56 SE 7 16.09 Smoke OVC029 14.4 11.1 15 12.8 81% 76.17 1015.4
01 03:56 SE 6 16.09 Smoke OVC026 14.4 11.1 81% 76.17 1015.3
01 02:56 SE 6 16.09 Smoke OVC025 14.4 11.1 81% 76.17 1015.3
01 01:56 SE 6 16.09 Smoke BKN023 OVC028 13.9 11.1 83% 76.17 1015.3
01 00:56 Calm 16.09 Smoke FEW019 12.8 10.6 87% 76.15 1015.0
31 23:56 Calm 16.09 Smoke SCT025 14.4 11.7 84% 76.15 1015.2
31 22:56 W 6 16.09 Smoke OVC016 14.4 11.1 19.4 14.4 81% 76.15 1015.2
31 21:56 N 9 16.09 Smoke BKN017 15.6 11.7 78% 76.12 1014.8
31 20:56 NW 9 16.09 Smoke CLR 15 11.1 78% 76.12 1014.7
31 18:56 NW 26 16.09 Smoke CLR 16.7 11.1 70% 76.02 1013.5
31 17:56 NW 26 16.09 Smoke CLR 18.3 11.1 63% 76.02 1013.2
31 15:56 NW 33 14.48 Smoke and Breezy CLR 20 11.1 57% 76.05 1013.6
31 13:56 NW 19 16.09 Fair CLR 21.7 11.1 51% 76.07 1013.9
31 12:56 Vrbl 7 16.09 Fair CLR 21.7 10.6 49% 76.1 1014.3
31 11:56 Vrbl 6 16.09 Fair CLR 18.9 10.6 59% 76.17 1015.2
31 10:56 Vrbl 7 14.48 Fair CLR 17.2 10 17.2 13.9 63% 76.2 1015.7
31 09:56 N 6 11.27 Overcast OVC019 15.6 10 70% 76.17 1015.5
31 08:56 W 6 9.66 Overcast with Haze OVC015 14.4 10.6 78% 76.15 1015.2
31 07:56 NW 9 11.27 Overcast OVC013 13.9 10.6 81% 76.12 1014.8
31 06:56 NW 7 12.87 Overcast OVC012 13.9 11.1 83% 76.07 1014.1
31 05:56 NW 6 9.66 Overcast with Haze OVC012 14.4 11.1 81% 76.05 1013.8
31 04:56 Vrbl 6 8.05 Overcast with Haze OVC012 14.4 11.7 15 14.4 84% 76.02 1013.4
31 03:56 NW 9 8.05 Overcast with Haze OVC012 14.4 11.7 84% 76.02 1013.5
31 02:56 NW 9 14.48 Overcast OVC013 14.4 11.7 84% 76.02 1013.4
31 01:56 NW 9 14.48 Overcast OVC012 15 12.2 83% 76.05 1013.6
31 00:56 NW 15 12.87 Overcast OVC011 15 12.2 83% 76.05 1013.8
30 23:56 NW 13 12.87 Overcast OVC011 15 12.2 83% 76.05 1013.7
30 22:56 N 17 12.87 Overcast OVC011 15 12.2 20.6 14.4 83% 76.05 1013.7
30 21:56 NW 19 12.87 Mostly Cloudy BKN011 15 12.2 83% 76.07 1014.0
30 20:56 NW 20 14.48 A Few Clouds FEW011 15 12.2 83% 76.05 1013.7
30 19:56 NW 20 16.09 Fair CLR 15 12.2 83% 76 1013.0
30 18:56 NW 28 16.09 Fair CLR 16.7 12.2 75% 76 1013.0
30 17:56 NW 33 16.09 Fair and Breezy CLR 18.3 11.7 66% 75.97 1012.8
30 16:56 NW 30 16.09 Fair CLR 20.6 11.7 22.8 19.4 57% 75.95 1012.5
30 15:56 NW 28 G 48 16.09 Fair CLR 21.7 11.7 53% 75.97 1012.7
30 14:56 NW 26 16.09 Fair CLR 22.2 11.7 52% 76.02 1013.2
30 13:56 NW 31 16.09 Fair CLR 22.2 11.7 52% 76.02 1013.5
30 12:56 NW 28 16.09 Fair CLR 21.7 11.7 53% 76.05 1013.6
Date Time (pdt) Wind (kph) Vis. (km) Weather Sky Cond. Air Dwpt Max. Min. Relative Humidity Wind Chill (°C) Heat Index (°C) altimeter (cm) sea level (mb) 1 hr 3 hr 6 hr
6 hour
Temperature (ºC) Pressure Precipitation (cm)